createdAt,value
2018-12-27T00:02:31.957Z,93.40
2018-12-27T00:05:12.693Z,93.40
2018-12-27T00:08:13.580Z,93.40
2018-12-27T00:10:54.070Z,93.50
2018-12-27T00:13:34.135Z,93.50
2018-12-27T00:16:14.180Z,93.50
2018-12-27T00:18:54.237Z,93.50
2018-12-27T00:21:35.864Z,93.50
2018-12-27T00:24:16.739Z,94.00
2018-12-27T00:26:57.778Z,93.50
2018-12-27T00:29:37.638Z,93.80
2018-12-27T00:32:17.866Z,93.70
2018-12-27T00:34:58.951Z,93.70
2018-12-27T00:37:42.575Z,93.70
2018-12-27T00:40:22.726Z,93.60
2018-12-27T00:43:03.301Z,93.80
2018-12-27T00:45:43.909Z,93.80
2018-12-27T00:48:23.807Z,93.80
2018-12-27T00:51:03.931Z,93.80
2018-12-27T00:53:44.017Z,93.80
2018-12-27T00:56:24.089Z,93.70
2018-12-27T00:59:04.073Z,93.90
2018-12-27T01:01:44.125Z,93.90
2018-12-27T01:04:24.075Z,93.90
2018-12-27T01:09:47.052Z,93.80
2018-12-27T01:12:27.208Z,93.90
2018-12-27T01:15:10.340Z,94.00
2018-12-27T01:17:51.193Z,93.90
2018-12-27T01:20:31.659Z,93.90
2018-12-27T01:23:11.694Z,93.90
2018-12-27T01:25:52.102Z,94.00
2018-12-27T01:28:32.737Z,94.00
2018-12-27T01:31:12.969Z,93.90
2018-12-27T01:33:53.190Z,93.90
2018-12-27T01:36:33.387Z,93.90
2018-12-27T01:39:13.149Z,93.90
2018-12-27T01:41:53.431Z,94.00
2018-12-27T01:44:34.125Z,94.00
2018-12-27T01:47:14.513Z,94.00
2018-12-27T01:49:55.095Z,94.00
2018-12-27T01:52:35.559Z,94.00
2018-12-27T01:55:15.292Z,93.90
2018-12-27T01:57:55.351Z,93.90
2018-12-27T02:00:35.623Z,93.80
2018-12-27T02:03:15.443Z,93.90
2018-12-27T02:05:55.492Z,94.00
2018-12-27T02:08:35.794Z,93.90
2018-12-27T02:11:15.667Z,93.90
2018-12-27T02:13:55.751Z,93.90
2018-12-27T02:16:35.647Z,94.10
2018-12-27T02:19:20.048Z,93.90
2018-12-27T02:22:00.635Z,93.80
2018-12-27T02:24:40.721Z,93.90
2018-12-27T02:27:20.988Z,94.10
2018-12-27T02:30:00.998Z,94.00
2018-12-27T02:32:41.367Z,94.30
2018-12-27T02:35:22.248Z,93.90
2018-12-27T02:38:02.469Z,93.80
2018-12-27T02:40:44.073Z,93.90
2018-12-27T02:43:24.973Z,93.90
2018-12-27T02:46:07.113Z,93.80
2018-12-27T02:48:47.490Z,94.00
2018-12-27T02:51:27.401Z,93.80
2018-12-27T02:54:08.507Z,93.80
2018-12-27T02:56:48.770Z,93.80
2018-12-27T02:59:29.066Z,93.70
2018-12-27T03:02:09.832Z,93.60
2018-12-27T03:04:50.819Z,93.60
2018-12-27T03:07:31.103Z,93.70
2018-12-27T03:10:11.309Z,93.60
2018-12-27T03:12:51.523Z,93.60
2018-12-27T03:15:32.780Z,93.50
2018-12-27T03:18:12.539Z,93.40
2018-12-27T03:20:52.640Z,93.40
2018-12-27T03:23:32.564Z,93.40
2018-12-27T03:26:12.656Z,93.40
2018-12-27T03:28:52.829Z,93.30
2018-12-27T03:31:32.681Z,93.30
2018-12-27T03:34:12.827Z,93.40
2018-12-27T03:36:53.361Z,93.40
2018-12-27T03:39:34.028Z,93.40
2018-12-27T03:42:14.373Z,93.30
2018-12-27T03:44:55.312Z,93.30
2018-12-27T03:47:36.472Z,93.30
2018-12-27T03:50:17.114Z,93.30
2018-12-27T03:52:57.002Z,93.30
2018-12-27T03:55:37.862Z,93.40
2018-12-27T03:58:17.811Z,93.40
2018-12-27T04:00:58.068Z,93.50
2018-12-27T04:03:38.838Z,93.40
2018-12-27T04:06:19.868Z,93.50
2018-12-27T04:08:59.942Z,93.50
2018-12-27T04:11:40.161Z,93.50
2018-12-27T04:14:20.022Z,93.30
2018-12-27T04:17:00.088Z,93.50
2018-12-27T04:19:40.370Z,93.50
2018-12-27T04:22:21.606Z,93.70
2018-12-27T04:25:02.998Z,93.60
2018-12-27T04:27:42.986Z,93.50
2018-12-27T04:30:23.371Z,93.50
2018-12-27T04:33:04.255Z,93.50
2018-12-27T04:35:44.302Z,93.50
2018-12-27T04:38:24.933Z,93.50
2018-12-27T04:41:05.170Z,93.50
2018-12-27T04:43:45.134Z,93.50
2018-12-27T04:46:24.969Z,93.50
2018-12-27T04:49:04.910Z,93.60
2018-12-27T04:51:44.998Z,93.60
2018-12-27T04:54:25.097Z,93.40
2018-12-27T04:57:05.909Z,93.40
2018-12-27T04:59:49.932Z,93.30
2018-12-27T05:02:30.050Z,93.40
2018-12-27T05:05:10.011Z,93.60
2018-12-27T05:07:50.149Z,93.50
2018-12-27T05:10:30.110Z,93.40
2018-12-27T05:13:11.106Z,93.50
2018-12-27T05:15:52.009Z,93.20
2018-12-27T05:18:31.887Z,93.30
2018-12-27T05:21:12.301Z,93.30
2018-12-27T05:23:52.894Z,93.40
2018-12-27T05:26:34.034Z,93.30
2018-12-27T05:29:15.316Z,93.40
2018-12-27T05:31:55.630Z,93.40
2018-12-27T05:34:36.480Z,93.20
2018-12-27T05:37:16.349Z,93.30
2018-12-27T05:39:56.691Z,93.30
2018-12-27T05:42:36.736Z,93.20
2018-12-27T05:45:17.761Z,93.20
2018-12-27T05:50:49.385Z,93.20
2018-12-27T05:53:30.108Z,93.10
2018-12-27T05:56:10.042Z,93.20
2018-12-27T05:58:50.635Z,93.10
2018-12-27T06:01:31.150Z,93.20
2018-12-27T06:04:11.310Z,92.90
2018-12-27T06:06:51.436Z,93.10
2018-12-27T06:09:32.002Z,93.00
2018-12-27T06:12:11.821Z,93.00
2018-12-27T06:14:51.810Z,93.10
2018-12-27T06:17:32.103Z,93.00
2018-12-27T06:20:12.258Z,93.00
2018-12-27T06:22:52.620Z,92.90
2018-12-27T06:25:33.365Z,93.00
2018-12-27T06:28:13.865Z,93.00
2018-12-27T06:30:54.973Z,92.90
2018-12-27T06:33:35.705Z,92.80
2018-12-27T06:36:15.778Z,92.90
2018-12-27T06:38:55.772Z,93.00
2018-12-27T06:41:35.998Z,92.80
2018-12-27T06:44:15.995Z,92.80
2018-12-27T06:46:56.548Z,93.00
2018-12-27T06:49:36.519Z,92.80
2018-12-27T06:52:16.316Z,93.00
2018-12-27T06:54:56.676Z,92.80
2018-12-27T06:57:36.605Z,92.90
2018-12-27T07:00:20.327Z,92.80
2018-12-27T07:03:00.906Z,93.00
2018-12-27T07:05:41.358Z,93.00
2018-12-27T07:08:23.354Z,92.90
2018-12-27T07:11:04.312Z,92.90
2018-12-27T07:13:45.399Z,92.90
2018-12-27T07:16:25.382Z,93.00
2018-12-27T07:19:06.210Z,92.70
2018-12-27T07:21:47.071Z,92.80
2018-12-27T07:24:27.572Z,92.70
2018-12-27T07:27:07.471Z,92.80
2018-12-27T07:29:48.246Z,92.80
2018-12-27T07:32:28.373Z,92.80
2018-12-27T07:37:57.638Z,92.70
2018-12-27T07:40:37.695Z,92.80
2018-12-27T07:43:17.793Z,92.70
2018-12-27T07:48:55.316Z,92.70
2018-12-27T07:51:36.081Z,92.70
2018-12-27T07:57:11.764Z,92.80
2018-12-27T07:59:54.665Z,92.60
2018-12-27T08:02:35.534Z,92.70
2018-12-27T08:05:15.866Z,92.60
2018-12-27T08:07:55.759Z,92.60
2018-12-27T08:10:35.981Z,92.60
2018-12-27T08:13:16.670Z,92.60
2018-12-27T08:15:56.959Z,93.00
2018-12-27T08:18:37.662Z,92.60
2018-12-27T08:21:18.309Z,92.70
2018-12-27T08:23:58.868Z,92.70
2018-12-27T08:26:40.020Z,92.70
2018-12-27T08:29:20.495Z,92.80
2018-12-27T08:32:00.796Z,92.80
2018-12-27T08:34:41.395Z,92.70
2018-12-27T08:37:21.383Z,92.80
2018-12-27T08:40:01.489Z,92.80
2018-12-27T08:42:42.045Z,92.70
2018-12-27T08:45:25.555Z,92.70
2018-12-27T08:48:09.246Z,92.80
2018-12-27T08:50:50.204Z,92.80
2018-12-27T08:53:31.139Z,92.80
2018-12-27T08:58:54.133Z,92.90
2018-12-27T09:04:30.259Z,92.90
2018-12-27T09:07:10.409Z,92.90
2018-12-27T09:09:50.262Z,92.90
2018-12-27T09:12:30.733Z,92.90
2018-12-27T09:15:14.138Z,92.90
2018-12-27T09:17:54.330Z,93.00
2018-12-27T09:20:35.307Z,93.00
2018-12-27T09:23:15.311Z,92.90
2018-12-27T09:25:56.183Z,92.80
2018-12-27T09:28:36.367Z,92.80
2018-12-27T09:31:18.174Z,92.70
2018-12-27T09:33:58.072Z,92.60
2018-12-27T09:36:38.201Z,92.80
2018-12-27T09:39:18.482Z,92.70
2018-12-27T09:41:58.549Z,92.80
2018-12-27T09:44:38.518Z,92.80
2018-12-27T09:47:18.537Z,93.00
2018-12-27T09:49:58.367Z,93.00
2018-12-27T09:52:38.308Z,92.90
2018-12-27T09:55:18.874Z,92.80
2018-12-27T09:57:59.535Z,92.90
2018-12-27T10:00:42.465Z,92.90
2018-12-27T10:03:22.553Z,92.90
2018-12-27T10:06:04.618Z,92.90
2018-12-27T10:11:41.967Z,92.90
2018-12-27T10:20:21.782Z,92.90
2018-12-27T10:23:02.123Z,93.00
2018-12-27T10:25:43.209Z,92.80
2018-12-27T10:28:23.859Z,93.10
2018-12-27T10:31:04.395Z,93.00
2018-12-27T10:33:44.845Z,93.10
2018-12-27T10:36:24.766Z,93.20
2018-12-27T10:39:05.344Z,93.30
2018-12-27T10:41:46.020Z,93.30
2018-12-27T10:44:26.708Z,93.40
2018-12-27T10:47:06.893Z,93.40
2018-12-27T10:49:47.922Z,93.30
2018-12-27T10:52:28.436Z,93.30
2018-12-27T10:55:09.217Z,93.30
2018-12-27T10:57:49.157Z,93.30
2018-12-27T11:00:30.002Z,93.30
2018-12-27T11:03:10.791Z,93.20
2018-12-27T11:05:51.123Z,93.20
2018-12-27T11:08:31.709Z,93.30
2018-12-27T11:11:12.658Z,93.40
2018-12-27T11:13:52.991Z,93.40
2018-12-27T11:16:33.324Z,93.40
2018-12-27T11:19:14.206Z,93.30
2018-12-27T11:21:57.685Z,93.40
2018-12-27T11:24:42.338Z,93.40
2018-12-27T11:27:22.625Z,93.40
2018-12-27T11:30:10.322Z,93.50
2018-12-27T11:32:52.815Z,93.50
2018-12-27T11:35:32.834Z,93.50
2018-12-27T11:38:13.030Z,93.80
2018-12-27T11:40:55.733Z,93.70
2018-12-27T11:45:02.464Z,93.80
2018-12-27T11:46:21.277Z,93.80
2018-12-27T11:52:17.329Z,93.90
2018-12-27T11:54:57.829Z,94.00
2018-12-27T11:57:38.471Z,93.90
2018-12-27T12:00:22.859Z,94.00
2018-12-27T12:03:02.938Z,93.90
2018-12-27T12:05:43.385Z,93.90
2018-12-27T12:08:23.931Z,93.90
2018-12-27T12:11:07.534Z,93.90
2018-12-27T12:13:48.694Z,93.90
2018-12-27T12:16:29.757Z,93.90
2018-12-27T12:19:10.086Z,94.00
2018-12-27T12:21:50.164Z,93.80
2018-12-27T12:24:31.348Z,93.60
2018-12-27T12:27:11.961Z,93.60
2018-12-27T12:29:52.184Z,93.40
2018-12-27T12:32:32.083Z,93.40
2018-12-27T12:38:29.834Z,93.20
2018-12-27T12:44:00.745Z,93.20
2018-12-27T12:46:40.837Z,93.10
2018-12-27T12:49:21.334Z,93.20
2018-12-27T12:52:01.539Z,93.10
2018-12-27T12:54:41.617Z,93.30
2018-12-27T12:57:22.454Z,93.20
2018-12-27T13:00:03.351Z,93.10
2018-12-27T13:02:50.784Z,93.10
2018-12-27T13:05:21.396Z,93.20
2018-12-27T13:08:10.206Z,93.00
2018-12-27T13:10:49.726Z,93.10
2018-12-27T13:13:30.074Z,92.90
2018-12-27T13:15:59.415Z,92.90
2018-12-27T13:18:39.938Z,92.90
2018-12-27T13:21:20.404Z,92.90
2018-12-27T13:24:00.481Z,92.90
2018-12-27T13:26:40.268Z,92.90
2018-12-27T13:29:20.203Z,93.00
2018-12-27T13:32:00.360Z,92.90
2018-12-27T13:34:40.466Z,92.90
2018-12-27T13:37:20.518Z,92.70
2018-12-27T13:40:00.333Z,92.90
2018-12-27T13:42:40.588Z,93.00
2018-12-27T13:45:20.595Z,92.90
2018-12-27T13:48:00.696Z,92.90
2018-12-27T13:50:41.303Z,92.90
2018-12-27T13:53:21.015Z,93.00
2018-12-27T13:56:01.068Z,93.00
2018-12-27T13:58:41.316Z,93.10
2018-12-27T14:01:21.508Z,93.20
2018-12-27T14:04:01.205Z,93.20
2018-12-27T14:06:41.335Z,93.20
2018-12-27T14:09:21.080Z,93.20
2018-12-27T14:12:01.197Z,93.20
2018-12-27T14:14:40.970Z,93.30
2018-12-27T14:17:21.076Z,93.30
2018-12-27T14:20:01.260Z,93.30
2018-12-27T14:22:41.449Z,93.40
2018-12-27T14:25:21.791Z,93.50
2018-12-27T14:28:01.685Z,93.60
2018-12-27T14:30:41.734Z,93.60
2018-12-27T14:33:21.942Z,93.60
2018-12-27T14:36:02.340Z,93.60
2018-12-27T14:38:41.980Z,93.50
2018-12-27T14:41:22.329Z,93.60
2018-12-27T14:44:01.908Z,93.60
2018-12-27T14:46:42.121Z,93.60
2018-12-27T14:49:22.388Z,93.50
2018-12-27T14:52:06.055Z,93.60
2018-12-27T14:54:45.855Z,93.60
2018-12-27T14:57:25.859Z,93.70
2018-12-27T15:00:05.806Z,93.70
2018-12-27T15:02:46.130Z,93.80
2018-12-27T15:05:25.961Z,93.80
2018-12-27T15:08:06.019Z,93.90
2018-12-27T15:10:46.224Z,93.80
2018-12-27T15:13:26.287Z,93.90
2018-12-27T15:16:06.279Z,93.90
2018-12-27T15:18:46.400Z,93.80
2018-12-27T15:21:26.398Z,93.80
2018-12-27T15:24:06.223Z,93.80
2018-12-27T15:26:46.342Z,93.80
2018-12-27T15:29:26.562Z,93.70
2018-12-27T15:32:06.388Z,93.90
2018-12-27T15:34:46.625Z,94.00
2018-12-27T15:37:26.555Z,93.90
2018-12-27T15:40:06.369Z,93.80
2018-12-27T15:42:46.576Z,93.80
2018-12-27T15:45:27.241Z,93.80
2018-12-27T15:48:07.258Z,94.00
2018-12-27T15:50:48.721Z,94.00
2018-12-27T15:53:29.219Z,93.80
2018-12-27T15:56:12.896Z,93.90
2018-12-27T15:58:53.652Z,94.10
2018-12-27T16:01:34.003Z,94.00
2018-12-27T16:04:14.619Z,93.80
2018-12-27T16:07:01.499Z,94.00
2018-12-27T16:09:36.498Z,94.00
2018-12-27T16:12:16.975Z,94.00
2018-12-27T16:14:56.864Z,94.00
2018-12-27T16:17:36.841Z,94.10
2018-12-27T16:20:16.954Z,94.00
2018-12-27T16:22:56.599Z,94.10
2018-12-27T16:25:36.569Z,94.20
2018-12-27T16:28:16.664Z,94.10
2018-12-27T16:30:56.387Z,94.10
2018-12-27T16:33:36.469Z,94.20
2018-12-27T16:36:16.722Z,94.10
2018-12-27T16:38:56.678Z,94.30
2018-12-27T16:41:36.985Z,94.20
2018-12-27T16:44:17.102Z,94.20
2018-12-27T16:46:56.924Z,94.30
2018-12-27T16:49:36.992Z,94.20
2018-12-27T16:52:17.447Z,94.20
2018-12-27T16:54:57.203Z,94.10
2018-12-27T16:57:37.122Z,94.30
2018-12-27T17:00:17.415Z,94.30
2018-12-27T17:02:57.444Z,94.40
2018-12-27T17:05:37.552Z,94.40
2018-12-27T17:08:17.651Z,94.40
2018-12-27T17:10:57.900Z,94.50
2018-12-27T17:13:37.875Z,94.40
2018-12-27T17:16:18.270Z,94.50
2018-12-27T17:18:58.078Z,94.70
2018-12-27T17:21:38.078Z,94.50
2018-12-27T17:24:18.254Z,94.60
2018-12-27T17:26:58.416Z,94.50
2018-12-27T17:29:38.508Z,94.40
2018-12-27T17:32:18.515Z,94.40
2018-12-27T17:34:58.604Z,94.40
2018-12-27T17:37:38.839Z,94.40
2018-12-27T17:40:18.764Z,94.70
2018-12-27T17:42:58.945Z,94.50
2018-12-27T17:45:39.383Z,94.50
2018-12-27T17:48:19.745Z,94.50
2018-12-27T17:51:00.067Z,94.50
2018-12-27T17:53:40.056Z,94.50
2018-12-27T17:56:20.274Z,94.60
2018-12-27T17:59:00.503Z,94.70
2018-12-27T18:01:40.332Z,94.70
2018-12-27T18:04:20.322Z,94.80
2018-12-27T18:07:00.694Z,94.70
2018-12-27T18:09:41.342Z,94.70
2018-12-27T18:12:22.090Z,94.80
2018-12-27T18:15:02.063Z,94.80
2018-12-27T18:17:43.139Z,94.80
2018-12-27T18:20:23.529Z,94.90
2018-12-27T18:23:03.619Z,94.80
2018-12-27T18:25:44.154Z,94.90
2018-12-27T18:28:24.156Z,94.90
2018-12-27T18:31:04.251Z,95.00
2018-12-27T18:33:44.275Z,94.90
2018-12-27T18:36:24.169Z,95.10
2018-12-27T18:39:04.463Z,95.10
2018-12-27T18:41:44.458Z,95.20
2018-12-27T18:44:24.447Z,95.20
2018-12-27T18:47:04.251Z,95.30
2018-12-27T18:49:44.311Z,95.20
2018-12-27T18:52:24.914Z,95.30
2018-12-27T18:55:05.721Z,95.30
2018-12-27T18:57:45.639Z,95.40
2018-12-27T19:00:25.670Z,95.50
2018-12-27T19:03:05.881Z,95.30
2018-12-27T19:05:45.822Z,95.30
2018-12-27T19:08:25.999Z,95.30
2018-12-27T19:11:06.270Z,95.30
2018-12-27T19:13:46.481Z,95.20
2018-12-27T19:16:26.618Z,95.20
2018-12-27T19:19:06.605Z,95.50
2018-12-27T19:21:46.770Z,95.60
2018-12-27T19:24:26.560Z,95.50
2018-12-27T19:27:06.598Z,95.50
2018-12-27T19:29:46.940Z,95.40
2018-12-27T19:32:26.733Z,95.50
2018-12-27T19:35:06.907Z,95.40
2018-12-27T19:37:52.111Z,95.50
2018-12-27T19:40:28.854Z,95.60
2018-12-27T19:43:09.012Z,95.60
2018-12-27T19:45:49.145Z,95.60
2018-12-27T19:48:29.109Z,95.60
2018-12-27T19:51:09.163Z,95.70
2018-12-27T19:53:49.317Z,95.60
2018-12-27T19:56:29.147Z,95.50
2018-12-27T19:59:12.673Z,95.70
2018-12-27T20:01:52.657Z,95.60
2018-12-27T20:04:32.419Z,95.60
2018-12-27T20:07:12.865Z,95.70
2018-12-27T20:09:53.311Z,95.70
2018-12-27T20:12:33.470Z,95.70
2018-12-27T20:15:13.253Z,95.80
2018-12-27T20:17:53.157Z,95.70
2018-12-27T20:20:33.214Z,95.90
2018-12-27T20:23:13.343Z,95.70
2018-12-27T20:25:53.622Z,95.80
2018-12-27T20:28:34.051Z,95.70
2018-12-27T20:31:14.086Z,95.80
2018-12-27T20:33:54.136Z,95.80
2018-12-27T20:36:34.137Z,95.90
2018-12-27T20:39:14.184Z,95.60
2018-12-27T20:41:54.536Z,95.60
2018-12-27T20:44:34.228Z,95.50
2018-12-27T20:47:14.561Z,95.50
2018-12-27T20:49:54.718Z,95.30
2018-12-27T20:52:34.649Z,95.30
2018-12-27T20:55:14.299Z,95.30
2018-12-27T20:57:54.251Z,95.30
2018-12-27T21:00:34.329Z,95.50
2018-12-27T21:03:14.329Z,95.40
2018-12-27T21:05:54.335Z,95.40
2018-12-27T21:08:34.224Z,95.40
2018-12-27T21:11:14.605Z,95.40
2018-12-27T21:13:54.847Z,95.50
2018-12-27T21:16:35.218Z,95.50
2018-12-27T21:19:15.410Z,95.50
2018-12-27T21:21:55.831Z,95.50
2018-12-27T21:24:36.919Z,95.50
2018-12-27T21:27:16.779Z,95.50
2018-12-27T21:29:56.965Z,95.60
2018-12-27T21:32:36.736Z,95.70
2018-12-27T21:35:16.762Z,95.70
2018-12-27T21:37:56.795Z,95.70
2018-12-27T21:40:37.117Z,95.80
2018-12-27T21:43:17.456Z,95.80
2018-12-27T21:45:57.399Z,95.70
2018-12-27T21:48:37.231Z,95.80
2018-12-27T21:51:17.588Z,95.90
2018-12-27T21:53:56.182Z,95.90
2018-12-27T21:56:43.645Z,95.80
2018-12-27T21:59:30.281Z,95.80
2018-12-27T22:02:10.825Z,95.80
2018-12-27T22:04:51.864Z,95.90
2018-12-27T22:07:32.979Z,95.90
2018-12-27T22:10:13.859Z,95.90
2018-12-27T22:12:53.683Z,95.90
2018-12-27T22:15:33.722Z,95.90
2018-12-27T22:18:13.716Z,95.90
2018-12-27T22:20:53.881Z,95.90
2018-12-27T22:23:33.830Z,95.90
2018-12-27T22:26:13.908Z,95.90
2018-12-27T22:28:53.884Z,96.00
2018-12-27T22:31:33.844Z,96.00
2018-12-27T22:34:13.921Z,96.00
2018-12-27T22:36:53.971Z,96.00
2018-12-27T22:39:33.995Z,96.00
2018-12-27T22:42:14.147Z,95.90
2018-12-27T22:44:54.139Z,96.00
2018-12-27T22:47:33.944Z,95.90
2018-12-27T22:50:13.993Z,95.90
2018-12-27T22:52:53.869Z,95.80
2018-12-27T22:55:33.956Z,95.80
2018-12-27T22:58:13.732Z,95.80
2018-12-27T23:00:53.702Z,95.90
2018-12-27T23:03:33.796Z,95.90
2018-12-27T23:06:13.742Z,95.90
2018-12-27T23:08:53.477Z,95.90
2018-12-27T23:11:33.623Z,96.00
2018-12-27T23:14:14.050Z,95.90
2018-12-27T23:16:58.130Z,95.90
2018-12-27T23:19:38.030Z,96.00
2018-12-27T23:22:17.829Z,95.80
2018-12-27T23:24:57.797Z,96.30
2018-12-27T23:27:38.235Z,95.90
2018-12-27T23:30:17.956Z,96.00
2018-12-27T23:32:58.514Z,96.00
2018-12-27T23:35:39.014Z,95.90
2018-12-27T23:38:19.115Z,96.00
2018-12-27T23:40:59.093Z,96.00
2018-12-27T23:43:39.132Z,96.00
2018-12-27T23:46:19.639Z,96.00
2018-12-27T23:48:59.491Z,96.10
2018-12-27T23:51:39.543Z,96.00
2018-12-27T23:54:19.265Z,95.80
2018-12-27T23:56:59.196Z,95.90
2018-12-27T23:59:39.398Z,96.00
